CheckWX is a tool to help pilots better visualize weather data.  It is not intended as a substitute for an official pre-flight weather briefing.

08:00:35 UTC

KORS METAR
Orcas Island Airport
Eastsound, Washington, USA
Current

6 mins ago

KORS 030755Z AUTO 21003KT 10SM BKN060 04/01 A3012 RMK AO2
Observed
Apr-3 @ 07:55 UTC
Wind
  • 210° at 3 KTS
Visibility
Flight Rules
VFR
Cloud Levels
  • Broken at 6,000' AGL
Temperature
C / 39°F
Dewpoint
C / 34°F
Humidity
81%
Altimeter
30.12" Hg
Pressure
1020.02 hPa
Previous

26 mins ago

KORS 030735Z AUTO 20005KT 10SM SCT060 04/00 A3012 RMK AO2
Observed
Apr-3 @ 07:35 UTC
Wind
  • 200° at 5 KTS
Visibility
Flight Rules
VFR
Cloud Levels
  • Scattered at 6,000' AGL
Temperature
C / 39°F
Dewpoint
C / 32°F
Humidity
75%
Altimeter
30.12" Hg
Pressure
1020.02 hPa
Previous

46 mins ago

KORS 030715Z AUTO 19006KT 10SM BKN065 05/00 A3012 RMK AO2
Observed
Apr-3 @ 07:15 UTC
Wind
  • 190° at 6 KTS
Visibility
Flight Rules
VFR
Cloud Levels
  • Broken at 6,500' AGL
Temperature
C / 41°F
Dewpoint
C / 32°F
Humidity
70%
Altimeter
30.12" Hg
Pressure
1020.02 hPa